sensor_id;sensor_type;location;lat;lon;timestamp;pressure;altitude;pressure_sealevel;temperature;humidity
60725;BME280;59881;36.722;-4.462;2022-08-24T00:00:09;100530.56;;;21.82;94.82
60725;BME280;59881;36.722;-4.462;2022-08-24T00:02:36;100153.81;;;19.42;94.50
60725;BME280;59881;36.722;-4.462;2022-08-24T00:05:01;100702.81;;;22.84;95.00
60725;BME280;59881;36.722;-4.462;2022-08-24T00:07:27;100155.97;;;19.38;94.78
60725;BME280;59881;36.722;-4.462;2022-08-24T00:09:53;99974.94;;;18.38;94.89
60725;BME280;59881;36.722;-4.462;2022-08-24T00:12:19;100664.44;;;22.61;95.33
60725;BME280;59881;36.722;-4.462;2022-08-24T00:14:44;100462.47;;;21.14;95.16
60725;BME280;59881;36.722;-4.462;2022-08-24T00:17:10;100569.38;;;21.94;95.25
60725;BME280;59881;36.722;-4.462;2022-08-24T00:19:36;99892.38;;;17.81;94.98
60725;BME280;59881;36.722;-4.462;2022-08-24T00:22:02;100686.13;;;22.74;95.41
60725;BME280;59881;36.722;-4.462;2022-08-24T00:24:27;99921.00;;;17.95;94.88
60725;BME280;59881;36.722;-4.462;2022-08-24T00:26:53;100032.72;;;18.54;94.81
60725;BME280;59881;36.722;-4.462;2022-08-24T00:29:21;100847.16;;;22.67;95.20
60725;BME280;59881;36.722;-4.462;2022-08-24T00:31:47;100024.22;;;18.59;94.74
60725;BME280;59881;36.722;-4.462;2022-08-24T00:34:13;99979.75;;;18.35;94.82
60725;BME280;59881;36.722;-4.462;2022-08-24T00:36:40;100009.59;;;18.47;94.96
60725;BME280;59881;36.722;-4.462;2022-08-24T00:39:07;100640.28;;;22.38;95.32
60725;BME280;59881;36.722;-4.462;2022-08-24T00:41:34;100011.75;;;18.51;94.76
60725;BME280;59881;36.722;-4.462;2022-08-24T00:44:02;99986.25;;;18.40;94.63
60725;BME280;59881;36.722;-4.462;2022-08-24T00:46:37;100689.53;;;22.68;94.58
60725;BME280;59881;36.722;-4.462;2022-08-24T00:52:11;100668.81;;;22.39;94.77
60725;BME280;59881;36.722;-4.462;2022-08-24T00:54:42;100659.41;;;22.43;94.59
60725;BME280;59881;36.722;-4.462;2022-08-24T00:57:12;100004.09;;;18.32;93.86
60725;BME280;59881;36.722;-4.462;2022-08-24T00:59:43;99926.69;;;17.84;93.67
60725;BME280;59881;36.722;-4.462;2022-08-24T01:02:16;100538.53;;;21.67;94.14
60725;BME280;59881;36.722;-4.462;2022-08-24T01:05:05;99729.97;;;16.66;93.50
60725;BME280;59881;36.722;-4.462;2022-08-24T01:07:32;100750.91;;;22.56;94.03
60725;BME280;59881;36.722;-4.462;2022-08-24T01:10:03;100242.72;;;19.67;93.57
60725;BME280;59881;36.722;-4.462;2022-08-24T01:12:31;100546.94;;;21.64;93.69
60725;BME280;59881;36.722;-4.462;2022-08-24T01:14:58;100152.03;;;19.18;93.49
60725;BME280;59881;36.722;-4.462;2022-08-24T01:17:25;99367.00;;;14.41;93.05
60725;BME280;59881;36.722;-4.462;2022-08-24T01:20:11;100647.88;;;22.34;93.69
60725;BME280;59881;36.722;-4.462;2022-08-24T01:25:30;99950.31;;;18.12;92.66
60725;BME280;59881;36.722;-4.462;2022-08-24T01:28:00;100683.84;;;22.48;93.13
60725;BME280;59881;36.722;-4.462;2022-08-24T01:30:29;99953.50;;;18.07;92.38
60725;BME280;59881;36.722;-4.462;2022-08-24T01:33:00;100618.50;;;22.09;92.66
60725;BME280;59881;36.722;-4.462;2022-08-24T01:35:27;100631.03;;;22.17;92.70
60725;BME280;59881;36.722;-4.462;2022-08-24T01:37:53;100631.88;;;22.18;92.84
60725;BME280;59881;36.722;-4.462;2022-08-24T01:40:20;99941.84;;;18.00;92.33
60725;BME280;59881;36.722;-4.462;2022-08-24T01:42:50;99897.69;;;17.73;92.16
60725;BME280;59881;36.722;-4.462;2022-08-24T01:45:16;100078.72;;;18.89;92.41
60725;BME280;59881;36.722;-4.462;2022-08-24T01:47:42;100656.22;;;22.39;92.65
60725;BME280;59881;36.722;-4.462;2022-08-24T01:50:08;100223.34;;;19.73;92.15
60725;BME280;59881;36.722;-4.462;2022-08-24T01:52:34;100043.19;;;18.64;91.86
60725;BME280;59881;36.722;-4.462;2022-08-24T01:55:00;100059.88;;;18.74;91.88
60725;BME280;59881;36.722;-4.462;2022-08-24T01:57:26;100604.75;;;22.13;92.32
60725;BME280;59881;36.722;-4.462;2022-08-24T01:59:52;100115.72;;;19.00;92.04
60725;BME280;59881;36.722;-4.462;2022-08-24T02:02:27;100620.69;;;21.60;92.09
60725;BME280;59881;36.722;-4.462;2022-08-24T02:04:53;100442.53;;;21.16;91.90
60725;BME280;59881;36.722;-4.462;2022-08-24T02:07:19;100735.44;;;22.35;92.26
60725;BME280;59881;36.722;-4.462;2022-08-24T02:09:45;99942.47;;;18.02;91.23
60725;BME280;59881;36.722;-4.462;2022-08-24T02:12:11;100509.16;;;21.51;91.85
60725;BME280;59881;36.722;-4.462;2022-08-24T02:14:37;100131.88;;;18.99;91.56
60725;BME280;59881;36.722;-4.462;2022-08-24T02:17:06;100795.38;;;22.27;91.92
60725;BME280;59881;36.722;-4.462;2022-08-24T02:19:32;100632.84;;;22.25;91.98
60725;BME280;59881;36.722;-4.462;2022-08-24T02:21:58;98998.03;;;12.19;91.09
60725;BME280;59881;36.722;-4.462;2022-08-24T02:24:25;100770.56;;;22.25;92.05
60725;BME280;59881;36.722;-4.462;2022-08-24T02:26:51;100615.78;;;22.18;91.97
60725;BME280;59881;36.722;-4.462;2022-08-24T02:29:16;100224.47;;;19.79;91.70
60725;BME280;59881;36.722;-4.462;2022-08-24T02:31:42;100572.16;;;21.78;92.16
60725;BME280;59881;36.722;-4.462;2022-08-24T02:34:08;100780.50;;;22.08;92.15
60725;BME280;59881;36.722;-4.462;2022-08-24T02:36:33;98608.16;;;9.77;90.60
60725;BME280;59881;36.722;-4.462;2022-08-24T02:38:59;99971.13;;;18.25;91.57
60725;BME280;59881;36.722;-4.462;2022-08-24T02:41:25;100612.75;;;22.21;92.16
60725;BME280;59881;36.722;-4.462;2022-08-24T02:43:52;100041.53;;;18.63;91.82
60725;BME280;59881;36.722;-4.462;2022-08-24T02:46:25;99890.72;;;17.72;91.75
60725;BME280;59881;36.722;-4.462;2022-08-24T02:48:51;100567.38;;;21.88;91.43
60725;BME280;59881;36.722;-4.462;2022-08-24T02:51:20;100159.91;;;19.03;91.94
60725;BME280;59881;36.722;-4.462;2022-08-24T02:53:47;100319.53;;;20.29;91.82
60725;BME280;59881;36.722;-4.462;2022-08-24T02:56:12;99940.16;;;17.74;91.67
60725;BME280;59881;36.722;-4.462;2022-08-24T02:58:38;100023.59;;;18.40;91.52
60725;BME280;59881;36.722;-4.462;2022-08-24T03:01:03;100747.19;;;21.55;92.06
60725;BME280;59881;36.722;-4.462;2022-08-24T03:03:29;100576.72;;;21.69;91.96
60725;BME280;59881;36.722;-4.462;2022-08-24T03:05:55;99798.53;;;17.05;91.62
60725;BME280;59881;36.722;-4.462;2022-08-24T03:08:20;100026.56;;;18.46;92.09
60725;BME280;59881;36.722;-4.462;2022-08-24T03:10:45;100730.88;;;21.73;92.13
60725;BME280;59881;36.722;-4.462;2022-08-24T03:13:11;100580.09;;;21.94;92.40
60725;BME280;59881;36.722;-4.462;2022-08-24T03:15:37;100584.06;;;21.98;92.04
60725;BME280;59881;36.722;-4.462;2022-08-24T03:18:03;99897.53;;;17.74;91.45
60725;BME280;59881;36.722;-4.462;2022-08-24T03:20:28;100593.63;;;22.01;91.40
60725;BME280;59881;36.722;-4.462;2022-08-24T03:22:54;100593.97;;;21.98;91.26
60725;BME280;59881;36.722;-4.462;2022-08-24T03:25:21;100029.59;;;18.43;90.81
60725;BME280;59881;36.722;-4.462;2022-08-24T03:27:49;99905.53;;;17.66;90.86
60725;BME280;59881;36.722;-4.462;2022-08-24T03:30:15;100618.88;;;21.83;91.09
60725;BME280;59881;36.722;-4.462;2022-08-24T03:32:41;100120.25;;;18.92;90.83
60725;BME280;59881;36.722;-4.462;2022-08-24T03:35:09;100610.97;;;21.90;91.22
60725;BME280;59881;36.722;-4.462;2022-08-24T03:37:35;99880.88;;;17.40;90.67
60725;BME280;59881;36.722;-4.462;2022-08-24T03:40:02;100743.44;;;21.73;91.01
60725;BME280;59881;36.722;-4.462;2022-08-24T03:42:28;100637.56;;;21.21;91.41
60725;BME280;59881;36.722;-4.462;2022-08-24T03:44:53;100565.88;;;21.62;91.22
60725;BME280;59881;36.722;-4.462;2022-08-24T03:47:19;100601.94;;;21.83;91.44
60725;BME280;59881;36.722;-4.462;2022-08-24T03:49:47;100101.09;;;18.39;91.25
60725;BME280;59881;36.722;-4.462;2022-08-24T03:52:12;100606.97;;;21.86;91.38
60725;BME280;59881;36.722;-4.462;2022-08-24T03:54:38;100569.88;;;21.66;91.29
60725;BME280;59881;36.722;-4.462;2022-08-24T03:57:04;100433.69;;;20.84;91.66
60725;BME280;59881;36.722;-4.462;2022-08-24T03:59:29;99877.03;;;17.01;91.24
60725;BME280;59881;36.722;-4.462;2022-08-24T04:01:56;100597.59;;;21.82;91.81
60725;BME280;59881;36.722;-4.462;2022-08-24T04:04:23;100377.47;;;20.45;91.86
60725;BME280;59881;36.722;-4.462;2022-08-24T04:06:49;100549.91;;;21.46;91.94
60725;BME280;59881;36.722;-4.462;2022-08-24T04:09:15;99752.56;;;16.62;91.81
60725;BME280;59881;36.722;-4.462;2022-08-24T04:11:41;100460.56;;;20.99;92.28
60725;BME280;59881;36.722;-4.462;2022-08-24T04:14:08;100604.09;;;21.87;92.50
60725;BME280;59881;36.722;-4.462;2022-08-24T04:16:34;100590.56;;;21.81;92.25
60725;BME280;59881;36.722;-4.462;2022-08-24T04:18:59;99360.13;;;14.22;91.26
60725;BME280;59881;36.722;-4.462;2022-08-24T04:21:28;100609.63;;;21.86;91.93
60725;BME280;59881;36.722;-4.462;2022-08-24T04:23:55;100798.72;;;21.82;91.75
60725;BME280;59881;36.722;-4.462;2022-08-24T04:26:23;99839.78;;;17.17;91.18
60725;BME280;59881;36.722;-4.462;2022-08-24T04:28:49;100454.38;;;20.99;91.34
60725;BME280;59881;36.722;-4.462;2022-08-24T04:31:16;100578.88;;;21.74;91.54
60725;BME280;59881;36.722;-4.462;2022-08-24T04:33:43;100487.25;;;21.16;91.23
60725;BME280;59881;36.722;-4.462;2022-08-24T04:36:10;99785.50;;;16.69;90.52
60725;BME280;59881;36.722;-4.462;2022-08-24T04:38:36;99820.34;;;17.01;90.61
60725;BME280;59881;36.722;-4.462;2022-08-24T04:41:04;99928.34;;;17.61;90.83
60725;BME280;59881;36.722;-4.462;2022-08-24T04:43:29;100585.31;;;21.64;91.13
60725;BME280;59881;36.722;-4.462;2022-08-24T04:45:55;100419.53;;;20.67;91.13
60725;BME280;59881;36.722;-4.462;2022-08-24T04:48:21;100066.25;;;18.32;90.90
60725;BME280;59881;36.722;-4.462;2022-08-24T04:50:47;100743.00;;;21.61;91.45
60725;BME280;59881;36.722;-4.462;2022-08-24T04:53:14;100751.88;;;21.61;91.54
60725;BME280;59881;36.722;-4.462;2022-08-24T04:55:46;100411.06;;;20.47;91.03
60725;BME280;59881;36.722;-4.462;2022-08-24T04:58:15;100583.97;;;21.60;91.47
60725;BME280;59881;36.722;-4.462;2022-08-24T05:00:41;100588.97;;;21.32;91.74
60725;BME280;59881;36.722;-4.462;2022-08-24T05:03:07;100468.19;;;20.79;91.58
60725;BME280;59881;36.722;-4.462;2022-08-24T05:05:33;100173.25;;;19.11;91.08
60725;BME280;59881;36.722;-4.462;2022-08-24T05:07:59;100556.59;;;21.50;91.18
60725;BME280;59881;36.722;-4.462;2022-08-24T05:10:25;99962.34;;;17.83;90.12
60725;BME280;59881;36.722;-4.462;2022-08-24T05:12:50;100294.63;;;19.89;89.65
60725;BME280;59881;36.722;-4.462;2022-08-24T05:15:16;99841.44;;;17.10;88.91
60725;BME280;59881;36.722;-4.462;2022-08-24T05:17:42;99894.88;;;17.25;88.64
60725;BME280;59881;36.722;-4.462;2022-08-24T05:20:10;99975.16;;;17.88;88.49
60725;BME280;59881;36.722;-4.462;2022-08-24T05:22:36;100580.34;;;21.53;88.81
60725;BME280;59881;36.722;-4.462;2022-08-24T05:25:03;100414.06;;;20.53;88.83
60725;BME280;59881;36.722;-4.462;2022-08-24T05:27:28;100572.66;;;21.50;88.71
60725;BME280;59881;36.722;-4.462;2022-08-24T05:29:54;100576.00;;;21.52;89.09
60725;BME280;59881;36.722;-4.462;2022-08-24T05:32:20;100593.56;;;21.55;89.46
60725;BME280;59881;36.722;-4.462;2022-08-24T05:34:46;100569.91;;;21.58;89.05
60725;BME280;59881;36.722;-4.462;2022-08-24T05:37:12;100006.97;;;18.14;88.95
60725;BME280;59881;36.722;-4.462;2022-08-24T05:39:37;100437.41;;;20.75;88.96
60725;BME280;59881;36.722;-4.462;2022-08-24T05:42:03;100582.22;;;21.76;89.33
60725;BME280;59881;36.722;-4.462;2022-08-24T05:44:29;100422.31;;;20.82;88.92
60725;BME280;59881;36.722;-4.462;2022-08-24T05:46:55;100243.78;;;18.59;88.42
60725;BME280;59881;36.722;-4.462;2022-08-24T05:49:23;100589.91;;;22.02;88.18
60725;BME280;59881;36.722;-4.462;2022-08-24T05:51:49;100468.69;;;21.37;88.01
60725;BME280;59881;36.722;-4.462;2022-08-24T05:54:14;100585.22;;;21.49;87.85
60725;BME280;59881;36.722;-4.462;2022-08-24T05:56:40;99862.75;;;17.76;86.63
60725;BME280;59881;36.722;-4.462;2022-08-24T05:59:06;99925.09;;;18.31;86.25
60725;BME280;59881;36.722;-4.462;2022-08-24T06:01:32;100649.19;;;22.76;85.67
60725;BME280;59881;36.722;-4.462;2022-08-24T06:03:58;100583.88;;;22.76;83.70
60725;BME280;59881;36.722;-4.462;2022-08-24T06:06:24;100493.97;;;22.27;81.44
60725;BME280;59881;36.722;-4.462;2022-08-24T06:08:54;100487.72;;;22.49;79.35
60725;BME280;59881;36.722;-4.462;2022-08-24T06:11:28;100039.88;;;20.03;77.53
60725;BME280;59881;36.722;-4.462;2022-08-24T06:13:58;99931.28;;;19.64;75.70
60725;BME280;59881;36.722;-4.462;2022-08-24T06:16:24;100491.56;;;23.43;74.80
60725;BME280;59881;36.722;-4.462;2022-08-24T06:18:51;99998.44;;;20.75;73.20
60725;BME280;59881;36.722;-4.462;2022-08-24T06:21:20;99917.97;;;20.62;71.38
60725;BME280;59881;36.722;-4.462;2022-08-24T06:23:46;99978.81;;;21.19;70.00
60725;BME280;59881;36.722;-4.462;2022-08-24T06:26:12;100741.25;;;25.19;69.99
60725;BME280;59881;36.722;-4.462;2022-08-24T06:28:58;100373.28;;;23.99;68.53
60725;BME280;59881;36.722;-4.462;2022-08-24T06:31:25;100505.97;;;24.97;68.43
60725;BME280;59881;36.722;-4.462;2022-08-24T06:33:52;100768.91;;;26.11;67.18
60725;BME280;59881;36.722;-4.462;2022-08-24T06:36:18;100063.75;;;23.04;65.19
60725;BME280;59881;36.722;-4.462;2022-08-24T06:38:44;99982.84;;;22.79;64.39
60725;BME280;59881;36.722;-4.462;2022-08-24T06:41:10;100758.06;;;27.26;63.17
60725;BME280;59881;36.722;-4.462;2022-08-24T06:43:36;99987.25;;;23.48;61.96
60725;BME280;59881;36.722;-4.462;2022-08-24T06:46:02;100161.91;;;24.71;60.43
60725;BME280;59881;36.722;-4.462;2022-08-24T06:48:28;100617.13;;;27.54;59.57
60725;BME280;59881;36.722;-4.462;2022-08-24T06:50:56;100043.31;;;23.58;59.56
60725;BME280;59881;36.722;-4.462;2022-08-24T06:53:21;100035.28;;;23.10;60.21
60725;BME280;59881;36.722;-4.462;2022-08-24T06:55:53;100665.13;;;26.54;61.52
60725;BME280;59881;36.722;-4.462;2022-08-24T06:58:20;100505.88;;;25.26;62.56
60725;BME280;59881;36.722;-4.462;2022-08-24T07:00:47;100058.16;;;22.36;63.32
60725;BME280;59881;36.722;-4.462;2022-08-24T07:03:14;100598.69;;;25.51;64.45
60725;BME280;59881;36.722;-4.462;2022-08-24T07:05:41;100569.94;;;25.24;65.02
60725;BME280;59881;36.722;-4.462;2022-08-24T07:08:13;100684.81;;;25.53;65.34
60725;BME280;59881;36.722;-4.462;2022-08-24T07:10:38;100103.28;;;21.89;66.09
60725;BME280;59881;36.722;-4.462;2022-08-24T07:13:04;100609.22;;;24.70;67.67
60725;BME280;59881;36.722;-4.462;2022-08-24T07:15:30;100667.50;;;25.06;67.86
60725;BME280;59881;36.722;-4.462;2022-08-24T07:17:55;100184.41;;;22.13;68.34
60725;BME280;59881;36.722;-4.462;2022-08-24T07:20:21;100671.75;;;25.22;68.46
60725;BME280;59881;36.722;-4.462;2022-08-24T07:22:49;99890.84;;;20.35;68.20
60725;BME280;59881;36.722;-4.462;2022-08-24T07:25:14;100734.03;;;24.77;68.48
60725;BME280;59881;36.722;-4.462;2022-08-24T07:27:40;99999.00;;;21.22;67.54
60725;BME280;59881;36.722;-4.462;2022-08-24T07:30:06;100729.22;;;25.64;67.06
60725;BME280;59881;36.722;-4.462;2022-08-24T07:32:33;100711.25;;;25.77;66.00
60725;BME280;59881;36.722;-4.462;2022-08-24T07:34:59;100606.25;;;25.28;65.56
60725;BME280;59881;36.722;-4.462;2022-08-24T07:37:25;100246.28;;;24.17;64.06
60725;BME280;59881;36.722;-4.462;2022-08-24T07:39:51;100609.75;;;27.10;61.72
60725;BME280;59881;36.722;-4.462;2022-08-24T07:42:17;100705.19;;;28.27;59.76
60725;BME280;59881;36.722;-4.462;2022-08-24T07:44:43;100590.13;;;27.79;57.91
60725;BME280;59881;36.722;-4.462;2022-08-24T07:47:09;100465.94;;;27.90;56.34
60725;BME280;59881;36.722;-4.462;2022-08-24T07:49:34;100774.06;;;30.07;53.12
60725;BME280;59881;36.722;-4.462;2022-08-24T07:52:01;100692.81;;;30.05;52.38
60725;BME280;59881;36.722;-4.462;2022-08-24T07:54:26;100070.69;;;25.60;53.16
60725;BME280;59881;36.722;-4.462;2022-08-24T07:56:53;100026.00;;;24.74;54.92
60725;BME280;59881;36.722;-4.462;2022-08-24T07:59:19;100653.00;;;28.13;56.89
60725;BME280;59881;36.722;-4.462;2022-08-24T08:01:45;100729.53;;;27.43;58.32
60725;BME280;59881;36.722;-4.462;2022-08-24T08:04:11;100542.50;;;26.75;59.79
60725;BME280;59881;36.722;-4.462;2022-08-24T08:06:39;100082.00;;;23.70;60.76
60725;BME280;59881;36.722;-4.462;2022-08-24T08:09:05;100171.34;;;24.14;61.58
60725;BME280;59881;36.722;-4.462;2022-08-24T08:11:31;100683.81;;;27.22;62.28
60725;BME280;59881;36.722;-4.462;2022-08-24T08:13:57;100551.47;;;26.49;62.06
60725;BME280;59881;36.722;-4.462;2022-08-24T08:16:22;100680.00;;;27.36;62.09
60725;BME280;59881;36.722;-4.462;2022-08-24T08:18:48;100218.78;;;24.35;61.95
60725;BME280;59881;36.722;-4.462;2022-08-24T08:21:14;100762.41;;;26.67;61.72
60725;BME280;59881;36.722;-4.462;2022-08-24T08:23:58;100530.66;;;26.69;61.71
60725;BME280;59881;36.722;-4.462;2022-08-24T08:26:39;100703.03;;;28.11;60.88
60725;BME280;59881;36.722;-4.462;2022-08-24T08:29:05;100708.94;;;28.33;60.27
60725;BME280;59881;36.722;-4.462;2022-08-24T08:31:32;100672.66;;;27.57;59.93
60725;BME280;59881;36.722;-4.462;2022-08-24T08:33:58;100634.59;;;27.97;59.71
60725;BME280;59881;36.722;-4.462;2022-08-24T08:36:23;100259.22;;;25.88;59.27
60725;BME280;59881;36.722;-4.462;2022-08-24T08:38:49;100087.47;;;24.90;58.86
60725;BME280;59881;36.722;-4.462;2022-08-24T08:44:00;100564.00;;;27.92;58.75
60725;BME280;59881;36.722;-4.462;2022-08-24T08:57:38;100725.66;;;30.34;55.26
60725;BME280;59881;36.722;-4.462;2022-08-24T09:00:20;100725.38;;;29.75;56.92
60725;BME280;59881;36.722;-4.462;2022-08-24T09:11:55;100783.19;;;31.79;52.38
60725;BME280;59881;36.722;-4.462;2022-08-24T09:22:38;100721.88;;;34.07;47.28
60725;BME280;59881;36.722;-4.462;2022-08-24T09:25:22;100715.91;;;35.07;44.15
60725;BME280;59881;36.722;-4.462;2022-08-24T09:39:09;100731.34;;;31.74;50.38
60725;BME280;59881;36.722;-4.462;2022-08-24T09:47:42;100706.38;;;39.66;36.19
60725;BME280;59881;36.722;-4.462;2022-08-24T10:02:04;100266.25;;;41.47;26.82
60725;BME280;59881;36.722;-4.462;2022-08-24T10:07:05;100660.28;;;45.94;24.42
60725;BME280;59881;36.722;-4.462;2022-08-24T10:09:42;100746.50;;;47.15;22.92
60725;BME280;59881;36.722;-4.462;2022-08-24T10:17:55;100383.53;;;45.00;22.52
60725;BME280;59881;36.722;-4.462;2022-08-24T10:29:29;100735.66;;;48.32;20.91
60725;BME280;59881;36.722;-4.462;2022-08-24T10:43:05;100698.31;;;47.67;19.63
60725;BME280;59881;36.722;-4.462;2022-08-24T10:46:25;100676.66;;;45.96;21.59
60725;BME280;59881;36.722;-4.462;2022-08-24T10:54:22;100226.66;;;33.42;31.64
60725;BME280;59881;36.722;-4.462;2022-08-24T10:57:30;100109.97;;;30.89;35.96
60725;BME280;59881;36.722;-4.462;2022-08-24T11:00:09;100722.69;;;33.58;38.59
60725;BME280;59881;36.722;-4.462;2022-08-24T11:02:39;100634.06;;;32.49;39.00
60725;BME280;59881;36.722;-4.462;2022-08-24T11:05:15;100661.19;;;31.93;39.45
60725;BME280;59881;36.722;-4.462;2022-08-24T11:08:14;100725.00;;;32.71;40.00
60725;BME280;59881;36.722;-4.462;2022-08-24T11:10:42;100121.19;;;28.68;38.95
60725;BME280;59881;36.722;-4.462;2022-08-24T11:13:22;100819.84;;;32.12;37.92
60725;BME280;59881;36.722;-4.462;2022-08-24T11:15:55;100847.66;;;31.73;40.64
60725;BME280;59881;36.722;-4.462;2022-08-24T11:18:24;100701.69;;;31.89;40.83
60725;BME280;59881;36.722;-4.462;2022-08-24T11:20:53;100633.47;;;31.27;39.69
60725;BME280;59881;36.722;-4.462;2022-08-24T11:23:22;100092.91;;;27.98;39.93
60725;BME280;59881;36.722;-4.462;2022-08-24T11:28:30;100384.25;;;29.15;40.24
60725;BME280;59881;36.722;-4.462;2022-08-24T11:30:57;100814.25;;;30.96;40.48
60725;BME280;59881;36.722;-4.462;2022-08-24T11:33:50;100698.53;;;31.17;40.59
60725;BME280;59881;36.722;-4.462;2022-08-24T11:36:27;100593.03;;;30.12;40.14
60725;BME280;59881;36.722;-4.462;2022-08-24T11:39:19;100700.66;;;30.79;39.85
60725;BME280;59881;36.722;-4.462;2022-08-24T11:47:30;100705.81;;;30.45;41.12
60725;BME280;59881;36.722;-4.462;2022-08-24T11:50:22;100708.53;;;30.45;41.52
60725;BME280;59881;36.722;-4.462;2022-08-24T11:53:07;100611.78;;;30.02;41.27
60725;BME280;59881;36.722;-4.462;2022-08-24T11:58:22;100516.38;;;29.57;41.95
60725;BME280;59881;36.722;-4.462;2022-08-24T12:01:05;100024.31;;;26.52;41.73
60725;BME280;59881;36.722;-4.462;2022-08-24T12:09:12;100002.72;;;25.76;43.37
60725;BME280;59881;36.722;-4.462;2022-08-24T12:11:50;100116.63;;;26.17;43.59
60725;BME280;59881;36.722;-4.462;2022-08-24T12:14:42;100824.00;;;29.25;45.06
60725;BME280;59881;36.722;-4.462;2022-08-24T12:17:23;100772.75;;;29.17;45.41
60725;BME280;59881;36.722;-4.462;2022-08-24T12:19:59;100660.91;;;29.15;45.55
60725;BME280;59881;36.722;-4.462;2022-08-24T12:22:27;100052.31;;;25.37;45.85
60725;BME280;59881;36.722;-4.462;2022-08-24T12:24:56;100610.50;;;28.14;45.87
60725;BME280;59881;36.722;-4.462;2022-08-24T12:27:41;100509.34;;;28.52;45.95
60725;BME280;59881;36.722;-4.462;2022-08-24T12:30:13;100793.50;;;29.48;46.77
60725;BME280;59881;36.722;-4.462;2022-08-24T12:33:00;100662.28;;;28.31;47.71
60725;BME280;59881;36.722;-4.462;2022-08-24T12:35:37;100841.13;;;29.26;48.09
60725;BME280;59881;36.722;-4.462;2022-08-24T12:38:21;100848.78;;;29.29;48.46
60725;BME280;59881;36.722;-4.462;2022-08-24T12:40:52;100078.03;;;25.46;48.92
60725;BME280;59881;36.722;-4.462;2022-08-24T12:43:28;100678.09;;;29.09;49.30
60725;BME280;59881;36.722;-4.462;2022-08-24T12:45:58;100426.47;;;27.57;49.96
60725;BME280;59881;36.722;-4.462;2022-08-24T12:48:49;100001.25;;;24.97;49.66
60725;BME280;59881;36.722;-4.462;2022-08-24T13:10:04;100392.94;;;27.33;51.66
60725;BME280;59881;36.722;-4.462;2022-08-24T13:33:40;100810.41;;;29.00;55.20
60725;BME280;59881;36.722;-4.462;2022-08-24T13:38:59;100012.09;;;24.77;55.52
60725;BME280;59881;36.722;-4.462;2022-08-24T13:41:40;100840.47;;;28.99;56.94
60725;BME280;59881;36.722;-4.462;2022-08-24T13:44:35;100687.31;;;28.83;57.50
60725;BME280;59881;36.722;-4.462;2022-08-24T13:47:11;100786.97;;;28.87;57.84
60725;BME280;59881;36.722;-4.462;2022-08-24T13:49:54;100686.25;;;29.02;57.58
60725;BME280;59881;36.722;-4.462;2022-08-24T13:52:53;100668.09;;;29.09;57.52
60725;BME280;59881;36.722;-4.462;2022-08-24T13:55:31;99925.38;;;24.42;58.01
60725;BME280;59881;36.722;-4.462;2022-08-24T13:58:15;100670.38;;;28.87;59.17
60725;BME280;59881;36.722;-4.462;2022-08-24T14:00:50;99419.13;;;17.88;59.17
60725;BME280;59881;36.722;-4.462;2022-08-24T14:14:16;100777.03;;;28.43;60.41
60725;BME280;59881;36.722;-4.462;2022-08-24T14:17:12;100656.28;;;28.22;61.57
60725;BME280;59881;36.722;-4.462;2022-08-24T14:20:32;100562.13;;;27.09;62.87
60725;BME280;59881;36.722;-4.462;2022-08-24T14:40:09;100658.19;;;28.46;61.78
60725;BME280;59881;36.722;-4.462;2022-08-24T14:42:57;99864.84;;;23.59;61.65
60725;BME280;59881;36.722;-4.462;2022-08-24T14:48:36;100141.47;;;25.49;60.32
60725;BME280;59881;36.722;-4.462;2022-08-24T14:51:48;100628.22;;;29.10;59.72
60725;BME280;59881;36.722;-4.462;2022-08-24T14:54:40;100004.97;;;25.03;60.09
60725;BME280;59881;36.722;-4.462;2022-08-24T15:00:16;100103.13;;;25.40;60.87
60725;BME280;59881;36.722;-4.462;2022-08-24T15:10:41;100144.91;;;24.97;62.15
60725;BME280;59881;36.722;-4.462;2022-08-24T15:19:08;100636.75;;;27.81;64.15
60725;BME280;59881;36.722;-4.462;2022-08-24T15:22:06;100757.72;;;27.88;64.13
60725;BME280;59881;36.722;-4.462;2022-08-24T15:29:52;100725.78;;;28.03;63.94
60725;BME280;59881;36.722;-4.462;2022-08-24T15:32:20;100620.25;;;27.83;64.11
60725;BME280;59881;36.722;-4.462;2022-08-24T15:34:54;100591.22;;;27.65;64.30
60725;BME280;59881;36.722;-4.462;2022-08-24T15:39:56;99099.09;;;18.34;63.92
60725;BME280;59881;36.722;-4.462;2022-08-24T15:42:21;100527.13;;;26.75;65.14
60725;BME280;59881;36.722;-4.462;2022-08-24T15:44:48;100429.56;;;26.25;65.43
60725;BME280;59881;36.722;-4.462;2022-08-24T15:47:29;100056.44;;;24.08;65.91
60725;BME280;59881;36.722;-4.462;2022-08-24T15:50:04;100044.88;;;24.01;66.04
60725;BME280;59881;36.722;-4.462;2022-08-24T15:55:43;100621.03;;;27.58;66.28
60725;BME280;59881;36.722;-4.462;2022-08-24T15:58:32;100507.75;;;26.85;66.38
60725;BME280;59881;36.722;-4.462;2022-08-24T16:04:01;99576.47;;;20.61;66.35
60725;BME280;59881;36.722;-4.462;2022-08-24T16:11:44;100507.94;;;26.97;67.11
60725;BME280;59881;36.722;-4.462;2022-08-24T16:14:28;100659.66;;;27.14;66.84
60725;BME280;59881;36.722;-4.462;2022-08-24T16:16:55;100696.75;;;27.65;67.18
60725;BME280;59881;36.722;-4.462;2022-08-24T16:19:31;100003.88;;;23.79;67.11
60725;BME280;59881;36.722;-4.462;2022-08-24T16:22:08;100618.59;;;27.50;67.13
60725;BME280;59881;36.722;-4.462;2022-08-24T16:24:41;100628.81;;;27.41;67.98
60725;BME280;59881;36.722;-4.462;2022-08-24T16:27:18;100712.47;;;27.30;68.62
60725;BME280;59881;36.722;-4.462;2022-08-24T16:29:45;99988.84;;;23.23;69.00
60725;BME280;59881;36.722;-4.462;2022-08-24T16:34:43;100625.78;;;27.04;70.06
60725;BME280;59881;36.722;-4.462;2022-08-24T16:37:10;100476.53;;;26.04;70.12
60725;BME280;59881;36.722;-4.462;2022-08-24T16:39:35;100557.28;;;26.26;70.19
60725;BME280;59881;36.722;-4.462;2022-08-24T16:42:04;99993.63;;;22.92;70.20
60725;BME280;59881;36.722;-4.462;2022-08-24T16:44:40;100720.63;;;26.63;70.03